Time;durP1;ratioP1;P1;durP2;ratioP2;P2;SDS_P1;SDS_P2;PMS_P1;PMS_P2;Temp;Humidity;BMP_temperature;BMP_pressure;BME280_temperature;BME280_humidity;BME280_pressure;Samples;Min_cycle;Max_cycle;Signal;HPM_P1;HPM_P2
2022/04/09 00:00:14;;;;;;;3.40;1.88;;;15.10;65.20;;;;;;5051376;28;20032;-53
2022/04/09 00:02:40;;;;;;;3.10;1.92;;;15.10;65.00;;;;;;5052779;28;20025;-56
2022/04/09 00:05:07;;;;;;;4.75;2.30;;;15.10;64.80;;;;;;5054933;28;20032;-55
2022/04/09 00:07:33;;;;;;;3.38;1.92;;;15.10;64.60;;;;;;5051971;28;20082;-57
2022/04/09 00:09:59;;;;;;;5.05;2.30;;;15.10;64.40;;;;;;5053665;28;20033;-56
2022/04/09 00:12:25;;;;;;;5.53;2.65;;;15.10;64.30;;;;;;5042746;28;20107;-55
2022/04/09 00:14:51;;;;;;;5.10;2.45;;;15.20;64.40;;;;;;5053597;28;20456;-53
2022/04/09 00:17:16;;;;;;;7.32;2.90;;;15.10;64.40;;;;;;5054202;28;20478;-55
2022/04/09 00:19:43;;;;;;;2.40;1.77;;;15.10;64.20;;;;;;5052235;28;20029;-57
2022/04/09 00:22:10;;;;;;;6.38;1.75;;;15.10;64.20;;;;;;5052528;28;20029;-52
2022/04/09 00:24:36;;;;;;;3.45;1.70;;;15.10;64.20;;;;;;5051522;28;20020;-55
2022/04/09 00:27:02;;;;;;;2.40;1.70;;;15.00;64.20;;;;;;5053213;28;20075;-57
2022/04/09 00:29:28;;;;;;;4.13;1.60;;;15.00;64.10;;;;;;5051368;28;20053;-56
2022/04/09 00:31:54;;;;;;;2.40;1.45;;;15.00;64.20;;;;;;5047449;28;20072;-54
2022/04/09 00:34:20;;;;;;;3.10;1.58;;;15.00;64.20;;;;;;5052301;28;20036;-58
2022/04/09 00:36:45;;;;;;;5.10;1.77;;;15.00;64.30;;;;;;5042114;28;20067;-57
2022/04/09 00:39:11;;;;;;;3.08;1.70;;;15.00;64.30;;;;;;5051968;28;20061;-58
2022/04/09 00:41:55;;;;;;;4.07;2.00;;;15.00;64.40;;;;;;5053625;28;20021;-57
2022/04/09 00:44:21;;;;;;;4.00;2.05;;;15.00;64.50;;;;;;5052418;28;20025;-56
2022/04/09 00:46:47;;;;;;;2.75;1.67;;;15.00;64.40;;;;;;5048606;28;20025;-56
2022/04/09 00:49:14;;;;;;;2.97;1.63;;;15.00;64.40;;;;;;5053125;28;20028;-56
2022/04/09 00:51:41;;;;;;;3.40;1.88;;;14.90;64.40;;;;;;5053359;28;20025;-57
2022/04/09 00:54:10;;;;;;;2.33;1.58;;;14.90;64.30;;;;;;5051291;28;20495;-56
2022/04/09 00:56:38;;;;;;;2.63;1.63;;;14.90;64.40;;;;;;5053623;28;20052;-56
2022/04/09 00:59:06;;;;;;;2.15;1.45;;;14.80;64.60;;;;;;5052729;28;20476;-59
2022/04/09 01:01:36;;;;;;;3.13;1.90;;;14.80;64.80;;;;;;5053562;28;20029;-58
2022/04/09 01:04:08;;;;;;;2.63;1.60;;;14.70;65.00;;;;;;5034578;28;20033;-57
2022/04/09 01:06:35;;;;;;;7.75;2.10;;;14.70;65.00;;;;;;5051630;28;20021;-55
2022/04/09 01:09:02;;;;;;;2.83;1.60;;;14.70;65.10;;;;;;5052387;28;20079;-56
2022/04/09 01:11:28;;;;;;;4.35;1.60;;;14.60;65.10;;;;;;5053001;28;20449;-56
2022/04/09 01:13:53;;;;;;;4.32;1.77;;;14.60;65.10;;;;;;5052621;28;20195;-56
2022/04/09 01:16:19;;;;;;;3.10;1.75;;;14.60;65.10;;;;;;5052952;28;20461;-58
2022/04/09 01:18:45;;;;;;;3.70;1.60;;;14.60;65.30;;;;;;5052638;28;20029;-61
2022/04/09 01:21:11;;;;;;;4.28;1.60;;;14.60;65.50;;;;;;5051490;28;20025;-57
2022/04/09 01:23:37;;;;;;;3.45;1.75;;;14.60;65.50;;;;;;5049392;28;20021;-56
2022/04/09 01:26:05;;;;;;;5.68;1.85;;;14.50;65.60;;;;;;5047998;28;20029;-56
2022/04/09 01:28:32;;;;;;;2.95;1.60;;;14.50;65.70;;;;;;5052779;28;20025;-56
2022/04/09 01:30:58;;;;;;;1.92;1.20;;;14.50;65.90;;;;;;5051046;28;20025;-56
2022/04/09 01:33:24;;;;;;;2.50;1.40;;;14.40;66.00;;;;;;5052244;28;20025;-58
2022/04/09 01:35:50;;;;;;;3.22;1.60;;;14.40;66.90;;;;;;5050386;28;20498;-56
2022/04/09 01:38:16;;;;;;;3.20;1.60;;;14.40;66.50;;;;;;5049831;28;20056;-58
2022/04/09 01:40:42;;;;;;;3.92;1.55;;;14.40;66.80;;;;;;5052308;28;20039;-54
2022/04/09 01:43:08;;;;;;;2.92;1.45;;;14.40;66.90;;;;;;5050898;28;20025;-58
2022/04/09 01:45:35;;;;;;;2.75;1.50;;;14.30;67.10;;;;;;5051232;28;20021;-58
2022/04/09 01:48:01;;;;;;;3.58;1.50;;;14.30;67.00;;;;;;5048308;28;20124;-58
2022/04/09 01:50:27;;;;;;;3.83;1.55;;;14.40;67.00;;;;;;5051663;28;20033;-55
2022/04/09 01:52:54;;;;;;;2.35;1.35;;;14.40;67.00;;;;;;5051686;28;20361;-57
2022/04/09 01:55:20;;;;;;;4.80;1.58;;;14.40;67.10;;;;;;5051307;28;20112;-55
2022/04/09 01:57:49;;;;;;;1.80;1.30;;;14.40;67.00;;;;;;5051023;28;20521;-56
2022/04/09 02:00:16;;;;;;;3.20;1.50;;;14.40;67.00;;;;;;5052413;28;20033;-55
2022/04/09 02:02:43;;;;;;;3.00;1.50;;;14.40;67.00;;;;;;5050788;28;20471;-51
2022/04/09 02:05:11;;;;;;;2.78;1.60;;;14.40;67.10;;;;;;5041097;28;20029;-55
2022/04/09 02:07:38;;;;;;;4.53;1.58;;;14.30;67.10;;;;;;5043649;28;20040;-64
2022/04/09 02:10:06;;;;;;;4.05;1.42;;;14.40;67.10;;;;;;5027089;28;20080;-64
2022/04/09 02:12:32;;;;;;;2.55;1.50;;;14.40;67.20;;;;;;5029389;28;20030;-63
2022/04/09 02:15:01;;;;;;;3.83;1.98;;;14.40;67.30;;;;;;5028713;28;20490;-65
2022/04/09 02:17:28;;;;;;;5.13;1.67;;;14.30;67.50;;;;;;5031897;28;20113;-63
2022/04/09 02:19:53;;;;;;;6.00;1.70;;;14.20;68.00;;;;;;5031484;28;20094;-63
2022/04/09 02:22:20;;;;;;;4.65;1.75;;;14.20;68.20;;;;;;5030862;28;20029;-65
2022/04/09 02:24:49;;;;;;;2.92;1.35;;;14.10;68.40;;;;;;5031992;28;20025;-64
2022/04/09 02:27:14;;;;;;;3.95;1.80;;;14.10;68.80;;;;;;5030118;28;20025;-63
2022/04/09 02:29:40;;;;;;;3.92;1.75;;;14.10;69.10;;;;;;5029987;28;20051;-63
2022/04/09 02:32:06;;;;;;;2.72;1.60;;;14.00;69.50;;;;;;5030167;28;20180;-65
2022/04/09 02:34:32;;;;;;;2.92;1.60;;;13.90;69.60;;;;;;5032048;28;20036;-63
2022/04/09 02:36:57;;;;;;;4.13;1.73;;;13.90;69.70;;;;;;5031639;28;20024;-64
2022/04/09 02:39:23;;;;;;;2.45;1.65;;;13.90;69.70;;;;;;5030704;28;20119;-63
2022/04/09 02:41:54;;;;;;;3.08;1.52;;;13.90;69.50;;;;;;5032020;28;20061;-65
2022/04/09 02:44:20;;;;;;;3.13;1.58;;;14.00;69.30;;;;;;5032006;28;20052;-64
2022/04/09 02:46:50;;;;;;;3.55;1.50;;;14.00;69.40;;;;;;5031696;28;20387;-63
2022/04/09 02:49:19;;;;;;;4.32;1.50;;;14.10;69.30;;;;;;5031834;28;20038;-66
2022/04/09 02:51:46;;;;;;;2.67;1.30;;;14.10;69.10;;;;;;5031671;28;20417;-65
2022/04/09 02:54:16;;;;;;;2.65;1.50;;;14.10;69.00;;;;;;5030057;28;20198;-63
2022/04/09 02:56:46;;;;;;;2.75;1.48;;;14.20;68.80;;;;;;5031671;28;20117;-63
2022/04/09 02:59:13;;;;;;;1.85;1.40;;;14.20;68.50;;;;;;5031429;28;20033;-64
2022/04/09 03:01:46;;;;;;;2.05;1.40;;;14.10;68.60;;;;;;5032479;28;20062;-64
2022/04/09 03:04:14;;;;;;;3.00;1.52;;;14.00;69.00;;;;;;5035178;28;20062;-65
2022/04/09 03:06:40;;;;;;;3.95;1.67;;;14.00;69.10;;;;;;5034482;28;20033;-64
2022/04/09 03:09:06;;;;;;;2.38;1.40;;;14.00;69.10;;;;;;5034158;28;20083;-62
2022/04/09 03:11:32;;;;;;;3.05;1.63;;;14.00;69.00;;;;;;5034440;28;20171;-64
2022/04/09 03:13:57;;;;;;;3.97;1.73;;;14.00;69.00;;;;;;5034595;28;20504;-63
2022/04/09 03:16:23;;;;;;;4.45;1.80;;;14.00;68.90;;;;;;5035371;28;20365;-63
2022/04/09 03:18:49;;;;;;;3.78;1.40;;;14.00;69.00;;;;;;5035895;28;20380;-64
2022/04/09 03:21:15;;;;;;;2.55;1.60;;;13.90;69.00;;;;;;5034648;28;20033;-65
2022/04/09 03:23:41;;;;;;;4.80;1.90;;;13.90;69.10;;;;;;5035069;28;20022;-63
2022/04/09 03:26:07;;;;;;;2.60;1.60;;;13.90;69.30;;;;;;5033358;28;20071;-63
2022/04/09 03:28:34;;;;;;;4.50;1.98;;;13.80;70.20;;;;;;5035002;28;20087;-62
2022/04/09 03:31:00;;;;;;;4.03;1.80;;;13.70;70.40;;;;;;5033358;28;20025;-64
2022/04/09 03:33:26;;;;;;;2.33;1.52;;;13.70;70.70;;;;;;5034555;28;20027;-62
2022/04/09 03:35:51;;;;;;;3.72;1.70;;;13.60;70.80;;;;;;5034261;28;20029;-63
2022/04/09 03:38:18;;;;;;;1.90;1.40;;;13.60;71.10;;;;;;5032170;28;20119;-63
2022/04/09 03:40:44;;;;;;;3.03;1.55;;;13.60;71.30;;;;;;5034856;28;20079;-64
2022/04/09 03:43:10;;;;;;;2.63;1.92;;;13.60;71.50;;;;;;5033182;28;20033;-63
2022/04/09 03:45:35;;;;;;;6.20;2.10;;;13.60;71.70;;;;;;5034746;28;20029;-64
2022/04/09 03:48:02;;;;;;;6.47;2.00;;;13.60;71.70;;;;;;5034019;28;20086;-63
2022/04/09 03:50:27;;;;;;;4.28;1.98;;;13.60;71.70;;;;;;5033483;28;20076;-62
2022/04/09 03:52:53;;;;;;;3.47;1.92;;;13.60;71.70;;;;;;5033128;28;20068;-63
2022/04/09 03:55:19;;;;;;;3.65;1.60;;;13.60;71.70;;;;;;5033657;28;20464;-64
2022/04/09 03:57:46;;;;;;;3.50;1.83;;;13.60;71.90;;;;;;5034517;28;20033;-64
2022/04/09 04:00:14;;;;;;;4.25;1.60;;;13.60;71.90;;;;;;5034048;28;20225;-63
2022/04/09 04:02:40;;;;;;;4.55;2.00;;;13.70;71.90;;;;;;5033496;28;20064;-63
2022/04/09 04:05:08;;;;;;;5.18;2.25;;;13.80;71.90;;;;;;5033816;28;20029;-65
2022/04/09 04:07:34;;;;;;;2.72;1.77;;;13.80;71.70;;;;;;5034754;28;20025;-63
2022/04/09 04:10:10;;;;;;;4.35;1.88;;;13.90;71.60;;;;;;5033179;28;20026;-61
2022/04/09 04:12:54;;;;;;;3.80;2.00;;;13.90;71.40;;;;;;5033655;28;20033;-64
2022/04/09 04:15:20;;;;;;;5.43;2.08;;;14.00;71.80;;;;;;5033911;28;20083;-64
2022/04/09 04:17:46;;;;;;;3.97;1.75;;;14.00;71.60;;;;;;5033206;28;20057;-64
2022/04/09 04:20:12;;;;;;;2.80;1.75;;;14.10;71.80;;;;;;5033636;28;20129;-64
2022/04/09 04:22:38;;;;;;;3.92;1.88;;;14.10;71.70;;;;;;5033972;28;20021;-63
2022/04/09 04:25:05;;;;;;;4.25;1.73;;;14.20;71.80;;;;;;5016000;28;20379;-63
2022/04/09 04:27:31;;;;;;;3.33;1.67;;;14.20;71.80;;;;;;5033967;28;20113;-62
2022/04/09 04:30:01;;;;;;;1.35;1.10;;;14.10;71.60;;;;;;5033928;28;20052;-63
2022/04/09 04:32:27;;;;;;;5.22;1.58;;;14.10;71.60;;;;;;5032856;28;20119;-63
2022/04/09 04:34:53;;;;;;;3.15;1.40;;;14.20;71.50;;;;;;5033853;28;20441;-65
2022/04/09 04:37:18;;;;;;;2.92;1.30;;;14.30;71.50;;;;;;5032294;28;20101;-63
2022/04/09 04:39:44;;;;;;;4.00;1.30;;;14.30;71.20;;;;;;5033799;28;20076;-65
2022/04/09 04:42:10;;;;;;;2.50;1.35;;;14.30;70.50;;;;;;5031872;28;20061;-63
2022/04/09 04:44:35;;;;;;;3.42;1.42;;;14.30;70.30;;;;;;5033411;28;20460;-64
2022/04/09 04:47:01;;;;;;;2.47;1.10;;;14.30;69.90;;;;;;5032940;28;20541;-62
2022/04/09 04:49:27;;;;;;;2.35;1.30;;;14.40;69.80;;;;;;5032195;28;20025;-63
2022/04/09 04:51:53;;;;;;;2.05;1.25;;;14.40;69.50;;;;;;5033734;28;20104;-63
2022/04/09 04:54:18;;;;;;;2.65;1.00;;;14.40;69.30;;;;;;5031483;28;20026;-64
2022/04/09 04:56:44;;;;;;;3.40;1.40;;;14.40;68.90;;;;;;5032397;28;20491;-63
2022/04/09 04:59:10;;;;;;;3.90;1.13;;;14.40;68.60;;;;;;5031761;28;20030;-63
2022/04/09 05:01:37;;;;;;;2.28;1.17;;;14.50;68.20;;;;;;5033556;28;20476;-64
2022/04/09 05:04:04;;;;;;;2.65;1.30;;;14.50;68.00;;;;;;5031794;28;20450;-61
2022/04/09 05:06:30;;;;;;;2.30;1.02;;;14.50;67.70;;;;;;5033041;28;20476;-64
2022/04/09 05:08:56;;;;;;;2.35;1.10;;;14.50;68.00;;;;;;5033351;28;20461;-65
2022/04/09 05:11:22;;;;;;;3.42;1.30;;;14.50;66.60;;;;;;5032706;28;20091;-63
2022/04/09 05:13:48;;;;;;;3.25;1.10;;;14.50;66.40;;;;;;5031662;28;20032;-63
2022/04/09 05:16:14;;;;;;;1.65;1.00;;;14.50;66.00;;;;;;5032383;28;20460;-64
2022/04/09 05:18:40;;;;;;;2.30;1.15;;;14.60;65.80;;;;;;5031863;28;20658;-64
2022/04/09 05:21:06;;;;;;;1.48;1.02;;;14.60;65.90;;;;;;5031337;28;20109;-61
2022/04/09 05:23:32;;;;;;;2.92;1.15;;;14.50;65.50;;;;;;5032060;28;20030;-64
2022/04/09 05:25:57;;;;;;;1.27;0.90;;;14.50;65.00;;;;;;5030316;28;20480;-65
2022/04/09 05:28:23;;;;;;;1.45;0.90;;;14.50;63.50;;;;;;5031457;28;20259;-64
2022/04/09 05:30:52;;;;;;;3.22;0.80;;;14.40;63.10;;;;;;5032117;28;20052;-63
2022/04/09 05:33:19;;;;;;;5.38;1.20;;;14.40;63.30;;;;;;5031753;28;20025;-64
2022/04/09 05:35:45;;;;;;;2.90;0.88;;;14.40;63.10;;;;;;5032108;28;20037;-63
2022/04/09 05:38:11;;;;;;;2.65;0.90;;;14.30;62.90;;;;;;5031457;28;20124;-63
2022/04/09 05:40:37;;;;;;;1.50;0.95;;;14.30;62.30;;;;;;5031652;28;20373;-63
2022/04/09 05:43:04;;;;;;;1.80;0.80;;;14.40;62.20;;;;;;5032286;28;20407;-63
2022/04/09 05:45:29;;;;;;;1.42;0.77;;;14.40;62.00;;;;;;5031005;28;20025;-62
2022/04/09 05:47:55;;;;;;;2.65;0.93;;;14.40;61.80;;;;;;5030347;28;20113;-64
2022/04/09 05:50:21;;;;;;;1.77;0.98;;;14.40;60.90;;;;;;5031006;28;20037;-62
2022/04/09 05:52:49;;;;;;;3.72;1.00;;;14.30;61.00;;;;;;5031963;28;20122;-63
2022/04/09 05:55:17;;;;;;;2.38;0.77;;;14.30;61.00;;;;;;5031170;28;20112;-62
2022/04/09 05:57:43;;;;;;;2.42;1.10;;;14.20;60.70;;;;;;5031556;28;20045;-63
2022/04/09 06:00:10;;;;;;;2.35;1.00;;;14.00;60.10;;;;;;5031293;28;20026;-62
2022/04/09 06:02:37;;;;;;;1.33;0.93;;;13.90;59.20;;;;;;5029706;28;20033;-63
2022/04/09 06:05:03;;;;;;;3.92;1.10;;;13.60;58.50;;;;;;5030671;28;20043;-63
2022/04/09 06:07:30;;;;;;;4.93;1.27;;;13.30;58.50;;;;;;5029623;28;20034;-64
2022/04/09 06:09:57;;;;;;;3.20;1.05;;;13.10;59.60;;;;;;5030975;28;20033;-62
2022/04/09 06:12:23;;;;;;;1.17;0.90;;;13.00;59.60;;;;;;5029862;28;20041;-63
2022/04/09 06:14:48;;;;;;;2.90;0.90;;;12.90;59.80;;;;;;5030070;28;20036;-64
2022/04/09 06:17:14;;;;;;;7.70;1.30;;;12.80;59.70;;;;;;5030400;28;20034;-63
2022/04/09 06:19:40;;;;;;;4.28;0.80;;;12.60;59.10;;;;;;5029547;28;20044;-63
2022/04/09 06:22:06;;;;;;;3.55;0.80;;;12.70;58.20;;;;;;5030751;28;20507;-62
2022/04/09 06:24:32;;;;;;;4.22;0.70;;;12.50;57.30;;;;;;5030415;28;20033;-63
2022/04/09 06:26:58;;;;;;;1.55;0.75;;;12.20;57.00;;;;;;5029626;28;20040;-62
2022/04/09 06:29:24;;;;;;;1.38;0.85;;;12.20;56.40;;;;;;5030666;28;20030;-63
2022/04/09 06:31:50;;;;;;;8.93;0.90;;;12.20;57.20;;;;;;5030995;28;20048;-63
2022/04/09 06:34:17;;;;;;;1.20;0.77;;;12.40;57.20;;;;;;5030688;28;20087;-63
2022/04/09 06:36:43;;;;;;;2.25;1.10;;;12.40;56.00;;;;;;5030638;28;20040;-64
2022/04/09 06:39:10;;;;;;;1.30;0.80;;;12.30;55.90;;;;;;5030530;28;20472;-60
2022/04/09 06:41:36;;;;;;;0.85;0.80;;;12.30;55.60;;;;;;5030584;28;20068;-64
2022/04/09 06:44:03;;;;;;;2.38;1.00;;;12.30;55.20;;;;;;5030822;28;20033;-63
2022/04/09 06:46:29;;;;;;;4.65;1.10;;;12.10;54.30;;;;;;5029068;28;20036;-62
2022/04/09 06:48:54;;;;;;;5.72;1.27;;;11.80;54.00;;;;;;5030965;28;20037;-63
2022/04/09 06:51:22;;;;;;;10.05;1.70;;;11.50;54.80;;;;;;5030388;28;20033;-64
2022/04/09 06:53:48;;;;;;;1.83;1.40;;;11.50;55.60;;;;;;5031158;28;20045;-63
2022/04/09 06:56:14;;;;;;;2.95;1.73;;;11.60;55.70;;;;;;5028449;28;20079;-61
2022/04/09 06:58:40;;;;;;;2.13;1.70;;;11.50;55.50;;;;;;5030008;28;20081;-63
2022/04/09 07:01:06;;;;;;;3.00;2.30;;;11.30;56.00;;;;;;5031126;28;20061;-62
2022/04/09 07:03:32;;;;;;;3.55;2.42;;;11.30;55.00;;;;;;5028904;28;20033;-65
2022/04/09 07:05:58;;;;;;;4.22;2.83;;;11.10;55.30;;;;;;5029531;28;20030;-62
2022/04/09 07:08:24;;;;;;;3.17;2.88;;;11.00;55.50;;;;;;5030119;28;20041;-63
2022/04/09 07:10:50;;;;;;;3.67;3.38;;;10.90;55.30;;;;;;5030171;28;20065;-63
2022/04/09 07:13:16;;;;;;;6.00;4.28;;;10.80;54.90;;;;;;5029682;28;20060;-62
2022/04/09 07:15:42;;;;;;;4.72;3.92;;;10.80;55.10;;;;;;5029576;28;20103;-62
2022/04/09 07:18:08;;;;;;;4.80;4.40;;;10.90;55.10;;;;;;5030469;28;20448;-61
2022/04/09 07:20:36;;;;;;;4.30;3.90;;;10.80;54.60;;;;;;5028394;28;20099;-62
2022/04/09 07:23:04;;;;;;;6.40;4.32;;;10.80;54.60;;;;;;5030885;28;20034;-63
2022/04/09 07:25:31;;;;;;;7.72;3.42;;;10.90;54.90;;;;;;5028037;28;20087;-63
2022/04/09 07:27:57;;;;;;;5.95;3.35;;;11.00;53.80;;;;;;5030341;28;20026;-63
2022/04/09 07:30:24;;;;;;;4.32;3.00;;;11.00;53.40;;;;;;5029711;28;20046;-65
2022/04/09 07:32:50;;;;;;;4.65;3.25;;;10.90;53.80;;;;;;5030762;28;20017;-64
2022/04/09 07:35:16;;;;;;;5.30;2.65;;;11.00;53.40;;;;;;5030356;28;20068;-62
2022/04/09 07:37:44;;;;;;;5.80;2.60;;;11.10;53.50;;;;;;5030768;28;20033;-62
2022/04/09 07:40:13;;;;;;;3.80;2.90;;;11.10;52.80;;;;;;5030666;28;20037;-65
2022/04/09 07:42:40;;;;;;;4.88;2.60;;;11.20;53.00;;;;;;5029684;28;20037;-63
2022/04/09 07:45:06;;;;;;;2.88;2.38;;;11.30;52.70;;;;;;5031424;28;20044;-64
2022/04/09 07:47:32;;;;;;;5.88;2.30;;;11.30;52.50;;;;;;5029144;28;20368;-64
2022/04/09 07:50:17;;;;;;;2.83;2.08;;;11.20;52.90;;;;;;5034968;28;20036;-64
2022/04/09 07:52:42;;;;;;;;;;;11.50;52.70;;;;;;5034664;28;20030;-63
2022/04/09 07:55:16;;;;;;;3.58;2.25;;;11.60;52.20;;;;;;5034482;28;20386;-65
2022/04/09 07:57:44;;;;;;;4.30;1.90;;;11.60;52.70;;;;;;5033763;28;20034;-64
2022/04/09 08:00:10;;;;;;;6.32;1.90;;;11.60;52.10;;;;;;5034445;28;20113;-63
2022/04/09 08:02:36;;;;;;;2.85;1.52;;;11.60;52.40;;;;;;5033629;28;20037;-65
2022/04/09 08:05:02;;;;;;;3.22;1.70;;;11.70;52.10;;;;;;5034377;28;20021;-64
2022/04/09 08:07:28;;;;;;;4.25;1.60;;;11.70;51.70;;;;;;5033254;28;20036;-64
2022/04/09 08:09:53;;;;;;;5.95;2.03;;;11.90;50.80;;;;;;5034457;28;20030;-64
2022/04/09 08:12:19;;;;;;;3.05;1.73;;;12.00;50.40;;;;;;5031444;28;20420;-63
2022/04/09 08:14:45;;;;;;;3.80;1.48;;;11.90;50.70;;;;;;5034308;28;20095;-62
2022/04/09 08:17:10;;;;;;;4.32;1.60;;;11.80;49.80;;;;;;5034408;28;20033;-63
2022/04/09 08:19:36;;;;;;;3.17;1.50;;;11.70;50.40;;;;;;5032135;28;20510;-64
2022/04/09 08:22:03;;;;;;;5.28;1.83;;;11.70;50.40;;;;;;5034513;28;20423;-64
2022/04/09 08:24:29;;;;;;;6.15;2.00;;;11.70;50.60;;;;;;5032947;28;20076;-62
2022/04/09 08:26:55;;;;;;;3.22;2.00;;;11.90;50.10;;;;;;5031421;28;20029;-65
2022/04/09 08:29:21;;;;;;;4.00;1.95;;;12.00;50.00;;;;;;5032515;28;20461;-62
2022/04/09 08:31:47;;;;;;;3.80;2.50;;;12.10;49.80;;;;;;5031958;28;20030;-63
2022/04/09 08:34:18;;;;;;;4.60;2.70;;;12.30;49.30;;;;;;5031754;28;20120;-63
2022/04/09 08:36:44;;;;;;;3.58;2.50;;;12.20;48.70;;;;;;5032716;28;20017;-64
2022/04/09 08:39:11;;;;;;;7.38;3.45;;;12.20;48.90;;;;;;5031728;28;20053;-67
2022/04/09 08:44:22;;;;;;;10.13;4.88;;;12.20;49.00;;;;;;5033006;28;20506;-69
2022/04/09 08:46:48;;;;;;;5.07;3.75;;;12.20;48.70;;;;;;5033716;28;20101;-69
2022/04/09 08:49:14;;;;;;;5.30;4.10;;;12.20;48.60;;;;;;5032226;28;20030;-69
2022/04/09 08:51:40;;;;;;;5.88;3.97;;;12.10;48.80;;;;;;5032453;28;20340;-70
2022/04/09 08:54:08;;;;;;;7.93;4.35;;;12.00;49.00;;;;;;5032723;28;20120;-70
2022/04/09 08:56:35;;;;;;;7.25;4.68;;;12.00;48.90;;;;;;5032826;28;20057;-70
2022/04/09 08:59:01;;;;;;;6.95;4.57;;;12.20;48.60;;;;;;5033147;28;20029;-70
2022/04/09 09:01:30;;;;;;;8.93;4.47;;;12.20;48.10;;;;;;5032346;28;20061;-67
2022/04/09 09:03:59;;;;;;;7.80;5.53;;;12.40;48.10;;;;;;5030823;28;20045;-68
2022/04/09 09:06:28;;;;;;;6.07;4.82;;;12.50;47.10;;;;;;5031204;28;20033;-66
2022/04/09 09:08:56;;;;;;;7.05;5.13;;;12.60;47.70;;;;;;5032750;28;20060;-71
2022/04/09 09:11:23;;;;;;;7.07;4.65;;;12.80;47.50;;;;;;5031155;28;20215;-69
2022/04/09 09:13:51;;;;;;;9.30;5.22;;;12.90;46.80;;;;;;5033057;28;20021;-68
2022/04/09 09:16:23;;;;;;;6.97;5.03;;;12.80;46.60;;;;;;5015040;28;20104;-67
2022/04/09 09:18:55;;;;;;;7.50;5.50;;;12.90;46.50;;;;;;5031290;28;20039;-68
2022/04/09 09:21:39;;;;;;;12.13;5.60;;;12.80;46.00;;;;;;5030777;28;20057;-67
2022/04/09 09:24:09;;;;;;;10.43;5.68;;;12.70;46.80;;;;;;5030878;28;20249;-62
2022/04/09 09:26:40;;;;;;;5.85;5.13;;;12.50;46.90;;;;;;5031758;28;20032;-68
2022/04/09 09:29:14;;;;;;;10.73;6.25;;;12.40;47.40;;;;;;5030111;28;20053;-60
2022/04/09 09:31:43;;;;;;;7.80;5.15;;;12.50;47.70;;;;;;5029011;28;20127;-62
2022/04/09 09:34:14;;;;;;;8.32;5.80;;;12.10;48.30;;;;;;5031354;28;20036;-70
2022/04/09 09:36:42;;;;;;;6.30;4.90;;;12.00;49.00;;;;;;5031562;28;20306;-69
2022/04/09 09:39:10;;;;;;;7.95;5.20;;;11.80;49.20;;;;;;5031831;28;20095;-68
2022/04/09 09:41:48;;;;;;;9.88;5.60;;;11.70;49.80;;;;;;5031656;28;20021;-68
2022/04/09 09:44:14;;;;;;;6.70;4.75;;;11.80;49.80;;;;;;5030292;28;20030;-66
2022/04/09 09:46:42;;;;;;;7.20;4.50;;;11.80;49.70;;;;;;5031198;28;20064;-65
2022/04/09 09:49:10;;;;;;;6.82;4.85;;;11.90;49.40;;;;;;5030851;28;20026;-68
2022/04/09 09:51:36;;;;;;;6.43;4.15;;;11.80;49.60;;;;;;5030830;28;20041;-68
2022/04/09 09:54:04;;;;;;;8.88;4.05;;;11.80;49.50;;;;;;5031779;28;20131;-67
2022/04/09 09:56:40;;;;;;;5.75;3.90;;;11.90;49.70;;;;;;5029599;28;20067;-65
2022/04/09 09:59:07;;;;;;;6.75;4.30;;;12.00;49.50;;;;;;5029475;28;20132;-66
2022/04/09 10:01:42;;;;;;;10.30;4.95;;;12.10;49.10;;;;;;5029616;28;20601;-66
2022/04/09 10:04:11;;;;;;;9.50;4.25;;;12.10;49.10;;;;;;5030235;28;20032;-68
2022/04/09 10:06:38;;;;;;;4.43;4.03;;;12.20;49.10;;;;;;5031535;28;20060;-68
2022/04/09 10:09:06;;;;;;;8.88;4.68;;;12.20;49.20;;;;;;5030611;28;20037;-71
2022/04/09 10:11:36;;;;;;;5.93;4.18;;;12.30;49.30;;;;;;5030929;28;20496;-68
2022/04/09 10:14:04;;;;;;;5.25;4.63;;;12.30;48.80;;;;;;5031514;28;20026;-66
2022/04/09 10:16:48;;;;;;;5.82;4.70;;;12.20;48.70;;;;;;5029792;28;20113;-68
2022/04/09 10:19:25;;;;;;;7.03;5.07;;;12.10;48.90;;;;;;5030179;28;20030;-67
2022/04/09 10:21:53;;;;;;;5.50;4.43;;;12.10;49.00;;;;;;5030153;28;20076;-66
2022/04/09 10:24:24;;;;;;;7.40;4.97;;;11.90;49.30;;;;;;5031241;28;20163;-67
2022/04/09 10:26:58;;;;;;;6.22;5.00;;;11.80;49.80;;;;;;5030342;28;20074;-68
2022/04/09 10:29:24;;;;;;;6.90;5.07;;;11.90;49.80;;;;;;5014069;28;20029;-66
2022/04/09 10:31:55;;;;;;;7.65;5.13;;;12.20;49.70;;;;;;5029825;28;20124;-67
2022/04/09 10:34:21;;;;;;;7.85;5.47;;;12.20;49.20;;;;;;5031240;28;20057;-68
2022/04/09 10:36:51;;;;;;;9.77;5.47;;;12.00;49.00;;;;;;5030196;28;20087;-65
2022/04/09 10:39:29;;;;;;;9.45;6.05;;;12.00;49.30;;;;;;5030888;28;20053;-67
2022/04/09 10:42:56;;;;;;;8.40;5.97;;;12.10;49.70;;;;;;5030323;28;20119;-66
2022/04/09 10:45:24;;;;;;;7.97;5.93;;;12.40;48.90;;;;;;5031746;28;20112;-69
2022/04/09 10:48:14;;;;;;;9.15;5.32;;;12.50;48.30;;;;;;5031106;28;20084;-68
2022/04/09 10:51:04;;;;;;;8.95;5.70;;;12.60;48.20;;;;;;5029470;28;20033;-67
2022/04/09 10:53:32;;;;;;;7.65;5.50;;;12.80;47.60;;;;;;5029128;28;20156;-67
2022/04/09 10:56:30;;;;;;;8.60;6.15;;;13.00;47.50;;;;;;5029204;28;20026;-67
2022/04/09 10:59:29;;;;;;;9.77;5.93;;;13.10;46.40;;;;;;5029609;28;20091;-66
2022/04/09 11:01:56;;;;;;;6.70;5.53;;;12.90;46.60;;;;;;5030619;28;20025;-68
2022/04/09 11:04:38;;;;;;;11.32;6.63;;;12.70;47.20;;;;;;5013282;28;20040;-68
2022/04/09 11:07:09;;;;;;;11.80;6.88;;;12.80;47.30;;;;;;5029495;28;20060;-69
2022/04/09 11:10:03;;;;;;;9.38;5.97;;;12.90;47.30;;;;;;5028557;28;20444;-69
2022/04/09 11:12:29;;;;;;;7.32;5.93;;;13.00;47.40;;;;;;5030074;28;20029;-67
2022/04/09 11:15:05;;;;;;;9.57;5.60;;;13.00;47.00;;;;;;5029565;28;20106;-68
2022/04/09 11:17:40;;;;;;;8.77;5.60;;;13.00;46.80;;;;;;5030251;28;20021;-67
2022/04/09 11:20:11;;;;;;;10.50;4.72;;;13.00;46.20;;;;;;5028925;28;20030;-67
2022/04/09 11:22:53;;;;;;;6.82;4.55;;;13.10;44.70;;;;;;5030380;28;20028;-67
2022/04/09 11:25:27;;;;;;;8.05;4.60;;;13.00;45.00;;;;;;5033541;28;20059;-69
2022/04/09 11:28:19;;;;;;;10.93;5.10;;;13.10;44.80;;;;;;5034316;28;20041;-69
2022/04/09 11:31:10;;;;;;;8.00;4.90;;;13.10;44.90;;;;;;5033792;28;20034;-69
2022/04/09 11:34:02;;;;;;;9.25;5.57;;;13.10;44.10;;;;;;5034041;28;20021;-70
2022/04/09 11:36:30;;;;;;;9.15;4.68;;;13.10;43.60;;;;;;5031970;28;20025;-67
2022/04/09 11:38:56;;;;;;;7.82;4.35;;;13.00;43.70;;;;;;5032257;28;20482;-66
2022/04/09 11:41:25;;;;;;;7.57;4.90;;;12.90;44.10;;;;;;5031601;28;20068;-69
2022/04/09 11:43:51;;;;;;;8.95;5.13;;;13.00;44.30;;;;;;5033051;28;20036;-70
2022/04/09 11:46:16;;;;;;;10.82;5.43;;;13.10;44.10;;;;;;5032485;28;20025;-71
2022/04/09 11:48:42;;;;;;;8.85;5.28;;;13.10;44.00;;;;;;5031615;28;20037;-70
2022/04/09 11:51:18;;;;;;;11.15;4.57;;;13.20;44.20;;;;;;5032349;28;20037;-72
2022/04/09 11:53:43;;;;;;;7.43;4.72;;;13.10;43.60;;;;;;5032567;28;20029;-71
2022/04/09 11:56:11;;;;;;;9.55;4.55;;;13.10;43.90;;;;;;5031965;28;20026;-69
2022/04/09 11:58:36;;;;;;;6.57;3.88;;;13.10;44.00;;;;;;5032339;28;20052;-69
2022/04/09 12:01:08;;;;;;;6.88;4.50;;;13.10;43.70;;;;;;5032300;28;20384;-71
2022/04/09 12:03:34;;;;;;;10.90;8.35;;;13.00;43.50;;;;;;5032938;28;20059;-69
2022/04/09 12:06:01;;;;;;;7.85;4.43;;;13.10;43.80;;;;;;5034131;28;20067;-70
2022/04/09 12:08:29;;;;;;;9.30;4.03;;;13.20;43.50;;;;;;5015377;28;20025;-67
2022/04/09 12:11:01;;;;;;;8.43;4.72;;;13.10;42.70;;;;;;5030124;28;20091;-71
2022/04/09 12:13:33;;;;;;;7.80;3.78;;;13.10;43.20;;;;;;5032688;28;20037;-67
2022/04/09 12:16:18;;;;;;;10.18;3.78;;;13.20;42.90;;;;;;5032177;28;20088;-68
2022/04/09 12:18:45;;;;;;;8.80;3.83;;;13.10;42.30;;;;;;5030587;28;20025;-70
2022/04/09 12:21:22;;;;;;;6.30;3.78;;;13.00;42.90;;;;;;5030764;28;20156;-70
2022/04/09 12:24:08;;;;;;;5.63;3.88;;;13.00;42.40;;;;;;5033243;28;20104;-70
2022/04/09 12:26:39;;;;;;;6.80;3.47;;;13.10;42.80;;;;;;5032793;28;20032;-69
2022/04/09 12:29:07;;;;;;;6.00;3.22;;;13.30;42.60;;;;;;5031139;28;20076;-67
2022/04/09 12:31:35;;;;;;;6.43;3.38;;;13.50;41.90;;;;;;5030215;28;20037;-68
2022/04/09 12:34:01;;;;;;;6.63;3.63;;;13.80;42.00;;;;;;5014176;28;20028;-68
2022/04/09 12:36:28;;;;;;;6.70;3.42;;;14.10;41.40;;;;;;5031575;28;20083;-68
2022/04/09 12:38:54;;;;;;;5.53;3.15;;;14.30;40.40;;;;;;5031206;28;20060;-69
2022/04/09 12:41:20;;;;;;;4.50;2.70;;;14.30;40.10;;;;;;5032865;28;20033;-67
2022/04/09 12:43:47;;;;;;;6.57;3.50;;;14.10;39.50;;;;;;5031830;28;20029;-66
2022/04/09 12:46:18;;;;;;;6.88;4.13;;;13.90;39.90;;;;;;5032815;28;20025;-67
2022/04/09 12:48:49;;;;;;;7.55;3.35;;;14.00;40.60;;;;;;5032072;28;20044;-66
2022/04/09 12:51:20;;;;;;;8.23;3.55;;;14.00;40.40;;;;;;5033006;28;20022;-70
2022/04/09 12:53:55;;;;;;;7.85;3.05;;;13.90;40.50;;;;;;5032912;28;20044;-72